Airfield :
LOGIN :

Register | Disclaimer

   EN    FR    IT 

 










Legend :    VFR   Marginal VFR   IFR   Intensive IFR   Very Intensive IFR
Visi :
Ceiling :
>= 8 km
>= 3000ft
5 to 8 km
1000 to 3000 ft
1500m to 5 km
500 to 1000 ft
800 to 1500m
200 to 500 ft
< 800m
< 200 ft
Symbols :   Thunderstorms  Fog  Heavy snow  Heavy precipitations  Wind > 20 kt
SIGMETs :     Misc.  Thunderstorms  Icing  Turbulence  Mountain Waves  Volcanic Ashes







- Airport Elevation : 2425 ft


ETHA - Altenstadt Army

CURRENT METAR :
  • 181520Z 26030G52KT 9999 BKN030 06/01 Q1003 BLACKBLU BLU

EXPIRED METARs :
  • 181420Z 26033G43KT 9999 SCT028 06/01 Q1003 BLACKBLU+BLU+ TEMPO BLU
  • 181320Z 26037G52KT 9999 SCT024 BKN210 05/01 Q1003 BLACKBLU+BLU+ TEMPO BLU

TAF TAF ETHA
Valid from the 18 at 15:00 until the 19 at 00:00 UTC


181420Z 1815/1824 26030G45KT 9999 NSW SCT030
BECMG 1815/1817 26025G40KT 9999 NSW SCT025 BKN050 BKN180
TEMPO 1817/1824 27030G45KT 5000 RA SCT015 BKN030 BKN060
No reported NOTAMs for that airfield.
2 SIGMETs reported for the München FIR (EDMM) :
 
Severe turbulence
EDMM SIGMET 6 VALID 181331/181630 EDZM
EDMM MUNCHEN FIR SEV TURB FCST N OF N4800 SFC/FL060 MOV E NC=
Severe turbulence
EDMM SIGMET 5 VALID 181200/181600 EDZM
EDMM MUNCHEN FIR SEV TURB FCST S OF N4800 SFC/FL130 STNR NC=



MET'MAP, your aeronautical weather chart ! - Copyright ORBIFLY December 2007 - Disclaimer

ORBIFLY MET'MAP TEAM :

Programming & Development : Alexandra Zaïnal
Concept & Development : Baudouin d'Aumeries
Co-Development & Prog : Marc-Olivier Méhu
Technical & hardware support : Manuel Goepfert

Contact : metmap@orbifly.com




SOURCES & CREDITS :

   NOAA